sensor_id;sensor_type;location;lat;lon;timestamp;P1;durP1;ratioP1;P2;durP2;ratioP2
52057;SDS011;38063;53.210;6.504;2023-11-22T00:01:21;11.48;;;6.68;;
52057;SDS011;38063;53.210;6.504;2023-11-22T00:03:47;13.52;;;7.25;;
52057;SDS011;38063;53.210;6.504;2023-11-22T00:06:13;11.13;;;6.82;;
52057;SDS011;38063;53.210;6.504;2023-11-22T00:08:39;10.85;;;6.78;;
52057;SDS011;38063;53.210;6.504;2023-11-22T00:11:04;10.60;;;6.50;;
52057;SDS011;38063;53.210;6.504;2023-11-22T00:13:30;11.70;;;6.40;;
52057;SDS011;38063;53.210;6.504;2023-11-22T00:15:57;11.80;;;7.05;;
52057;SDS011;38063;53.210;6.504;2023-11-22T00:18:23;11.95;;;7.30;;
52057;SDS011;38063;53.210;6.504;2023-11-22T00:20:49;11.80;;;6.78;;
52057;SDS011;38063;53.210;6.504;2023-11-22T00:23:15;12.93;;;6.95;;
52057;SDS011;38063;53.210;6.504;2023-11-22T00:25:41;11.30;;;6.93;;
52057;SDS011;38063;53.210;6.504;2023-11-22T00:28:07;15.30;;;6.85;;
52057;SDS011;38063;53.210;6.504;2023-11-22T00:30:32;10.10;;;6.63;;
52057;SDS011;38063;53.210;6.504;2023-11-22T00:32:58;11.93;;;6.82;;
52057;SDS011;38063;53.210;6.504;2023-11-22T00:35:24;11.25;;;6.32;;
52057;SDS011;38063;53.210;6.504;2023-11-22T00:37:49;11.13;;;6.75;;
52057;SDS011;38063;53.210;6.504;2023-11-22T00:40:15;11.63;;;6.63;;
52057;SDS011;38063;53.210;6.504;2023-11-22T00:42:41;11.20;;;6.72;;
52057;SDS011;38063;53.210;6.504;2023-11-22T00:45:08;11.02;;;6.90;;
52057;SDS011;38063;53.210;6.504;2023-11-22T00:47:35;13.18;;;7.03;;
52057;SDS011;38063;53.210;6.504;2023-11-22T00:50:02;12.77;;;6.45;;
52057;SDS011;38063;53.210;6.504;2023-11-22T00:52:29;11.95;;;6.43;;
52057;SDS011;38063;53.210;6.504;2023-11-22T00:54:55;13.00;;;7.25;;
52057;SDS011;38063;53.210;6.504;2023-11-22T00:57:21;14.68;;;6.60;;
52057;SDS011;38063;53.210;6.504;2023-11-22T00:59:48;12.75;;;8.30;;
52057;SDS011;38063;53.210;6.504;2023-11-22T01:02:14;10.90;;;6.10;;
52057;SDS011;38063;53.210;6.504;2023-11-22T01:04:39;13.60;;;7.00;;
52057;SDS011;38063;53.210;6.504;2023-11-22T01:07:05;11.18;;;6.82;;
52057;SDS011;38063;53.210;6.504;2023-11-22T01:09:32;12.95;;;7.50;;
52057;SDS011;38063;53.210;6.504;2023-11-22T01:11:58;10.88;;;6.47;;
52057;SDS011;38063;53.210;6.504;2023-11-22T01:14:24;12.70;;;6.90;;
52057;SDS011;38063;53.210;6.504;2023-11-22T01:16:51;11.75;;;6.57;;
52057;SDS011;38063;53.210;6.504;2023-11-22T01:19:17;12.52;;;7.13;;
52057;SDS011;38063;53.210;6.504;2023-11-22T01:21:43;12.02;;;7.20;;
52057;SDS011;38063;53.210;6.504;2023-11-22T01:24:09;13.13;;;6.82;;
52057;SDS011;38063;53.210;6.504;2023-11-22T01:26:35;12.75;;;7.15;;
52057;SDS011;38063;53.210;6.504;2023-11-22T01:29:01;10.73;;;6.30;;
52057;SDS011;38063;53.210;6.504;2023-11-22T01:31:27;13.27;;;7.28;;
52057;SDS011;38063;53.210;6.504;2023-11-22T01:33:53;10.13;;;7.15;;
52057;SDS011;38063;53.210;6.504;2023-11-22T01:36:20;12.23;;;6.85;;
52057;SDS011;38063;53.210;6.504;2023-11-22T01:38:45;11.35;;;6.60;;
52057;SDS011;38063;53.210;6.504;2023-11-22T01:41:12;11.88;;;6.70;;
52057;SDS011;38063;53.210;6.504;2023-11-22T01:43:38;13.32;;;7.05;;
52057;SDS011;38063;53.210;6.504;2023-11-22T01:46:06;10.75;;;6.65;;
52057;SDS011;38063;53.210;6.504;2023-11-22T01:48:33;10.82;;;6.78;;
52057;SDS011;38063;53.210;6.504;2023-11-22T01:51:00;10.88;;;6.28;;
52057;SDS011;38063;53.210;6.504;2023-11-22T01:53:26;12.40;;;7.25;;
52057;SDS011;38063;53.210;6.504;2023-11-22T01:55:51;14.55;;;6.78;;
52057;SDS011;38063;53.210;6.504;2023-11-22T01:58:17;13.55;;;6.35;;
52057;SDS011;38063;53.210;6.504;2023-11-22T02:00:49;12.55;;;6.70;;
52057;SDS011;38063;53.210;6.504;2023-11-22T02:03:16;14.57;;;6.63;;
52057;SDS011;38063;53.210;6.504;2023-11-22T02:05:43;11.32;;;6.40;;
52057;SDS011;38063;53.210;6.504;2023-11-22T02:08:10;12.88;;;6.35;;
52057;SDS011;38063;53.210;6.504;2023-11-22T02:10:37;12.77;;;6.43;;
52057;SDS011;38063;53.210;6.504;2023-11-22T02:13:03;10.93;;;6.20;;
52057;SDS011;38063;53.210;6.504;2023-11-22T02:15:35;12.73;;;6.65;;
52057;SDS011;38063;53.210;6.504;2023-11-22T02:18:02;14.20;;;7.40;;
52057;SDS011;38063;53.210;6.504;2023-11-22T02:20:29;11.65;;;6.00;;
52057;SDS011;38063;53.210;6.504;2023-11-22T02:22:55;13.40;;;7.53;;
52057;SDS011;38063;53.210;6.504;2023-11-22T02:25:22;12.90;;;7.15;;
52057;SDS011;38063;53.210;6.504;2023-11-22T02:27:47;10.77;;;6.35;;
52057;SDS011;38063;53.210;6.504;2023-11-22T02:30:13;14.65;;;6.82;;
52057;SDS011;38063;53.210;6.504;2023-11-22T02:32:40;14.00;;;6.93;;
52057;SDS011;38063;53.210;6.504;2023-11-22T02:35:06;13.80;;;7.15;;
52057;SDS011;38063;53.210;6.504;2023-11-22T02:37:33;13.10;;;7.80;;
52057;SDS011;38063;53.210;6.504;2023-11-22T02:40:02;13.27;;;7.15;;
52057;SDS011;38063;53.210;6.504;2023-11-22T02:42:32;13.05;;;7.35;;
52057;SDS011;38063;53.210;6.504;2023-11-22T02:44:59;14.77;;;7.05;;
52057;SDS011;38063;53.210;6.504;2023-11-22T02:47:25;13.73;;;7.15;;
52057;SDS011;38063;53.210;6.504;2023-11-22T02:49:50;12.95;;;6.72;;
52057;SDS011;38063;53.210;6.504;2023-11-22T02:52:16;11.75;;;6.63;;
52057;SDS011;38063;53.210;6.504;2023-11-22T02:54:43;11.88;;;7.07;;
52057;SDS011;38063;53.210;6.504;2023-11-22T02:57:11;14.00;;;7.30;;
52057;SDS011;38063;53.210;6.504;2023-11-22T02:59:37;13.68;;;7.15;;
52057;SDS011;38063;53.210;6.504;2023-11-22T03:02:06;13.85;;;7.28;;
52057;SDS011;38063;53.210;6.504;2023-11-22T03:04:32;14.95;;;6.88;;
52057;SDS011;38063;53.210;6.504;2023-11-22T03:06:59;13.95;;;6.88;;
52057;SDS011;38063;53.210;6.504;2023-11-22T03:09:24;11.68;;;6.80;;
52057;SDS011;38063;53.210;6.504;2023-11-22T03:11:52;12.65;;;7.10;;
52057;SDS011;38063;53.210;6.504;2023-11-22T03:14:17;11.77;;;6.65;;
52057;SDS011;38063;53.210;6.504;2023-11-22T03:16:44;13.57;;;6.72;;
52057;SDS011;38063;53.210;6.504;2023-11-22T03:19:10;11.82;;;7.13;;
52057;SDS011;38063;53.210;6.504;2023-11-22T03:21:38;10.55;;;6.35;;
52057;SDS011;38063;53.210;6.504;2023-11-22T03:24:04;12.68;;;6.78;;
52057;SDS011;38063;53.210;6.504;2023-11-22T03:26:31;13.85;;;7.43;;
52057;SDS011;38063;53.210;6.504;2023-11-22T03:28:56;13.50;;;7.22;;
52057;SDS011;38063;53.210;6.504;2023-11-22T03:31:22;13.85;;;7.45;;
52057;SDS011;38063;53.210;6.504;2023-11-22T03:33:48;15.18;;;8.10;;
52057;SDS011;38063;53.210;6.504;2023-11-22T03:36:13;12.57;;;6.63;;
52057;SDS011;38063;53.210;6.504;2023-11-22T03:38:39;11.18;;;6.32;;
52057;SDS011;38063;53.210;6.504;2023-11-22T03:41:05;14.02;;;6.82;;
52057;SDS011;38063;53.210;6.504;2023-11-22T03:43:31;11.82;;;6.43;;
52057;SDS011;38063;53.210;6.504;2023-11-22T03:45:56;11.23;;;6.18;;
52057;SDS011;38063;53.210;6.504;2023-11-22T03:48:22;12.60;;;7.10;;
52057;SDS011;38063;53.210;6.504;2023-11-22T03:50:49;12.30;;;6.47;;
52057;SDS011;38063;53.210;6.504;2023-11-22T03:53:15;12.65;;;6.75;;
52057;SDS011;38063;53.210;6.504;2023-11-22T03:55:40;13.63;;;7.38;;
52057;SDS011;38063;53.210;6.504;2023-11-22T03:58:06;15.85;;;7.05;;
52057;SDS011;38063;53.210;6.504;2023-11-22T04:00:33;11.90;;;6.80;;
52057;SDS011;38063;53.210;6.504;2023-11-22T04:02:59;13.57;;;7.47;;
52057;SDS011;38063;53.210;6.504;2023-11-22T04:05:27;12.82;;;6.45;;
52057;SDS011;38063;53.210;6.504;2023-11-22T04:07:53;13.52;;;6.50;;
52057;SDS011;38063;53.210;6.504;2023-11-22T04:10:21;13.02;;;6.60;;
52057;SDS011;38063;53.210;6.504;2023-11-22T04:12:47;13.40;;;6.18;;
52057;SDS011;38063;53.210;6.504;2023-11-22T04:15:13;11.88;;;6.65;;
52057;SDS011;38063;53.210;6.504;2023-11-22T04:17:39;13.38;;;6.78;;
52057;SDS011;38063;53.210;6.504;2023-11-22T04:20:06;11.68;;;6.05;;
52057;SDS011;38063;53.210;6.504;2023-11-22T04:22:35;14.77;;;6.95;;
52057;SDS011;38063;53.210;6.504;2023-11-22T04:25:02;13.23;;;6.47;;
52057;SDS011;38063;53.210;6.504;2023-11-22T04:27:27;12.63;;;7.25;;
52057;SDS011;38063;53.210;6.504;2023-11-22T04:29:53;12.73;;;7.00;;
52057;SDS011;38063;53.210;6.504;2023-11-22T04:32:19;14.90;;;7.05;;
52057;SDS011;38063;53.210;6.504;2023-11-22T04:34:47;16.45;;;7.22;;
52057;SDS011;38063;53.210;6.504;2023-11-22T04:37:13;15.88;;;8.05;;
52057;SDS011;38063;53.210;6.504;2023-11-22T04:39:38;14.48;;;7.10;;
52057;SDS011;38063;53.210;6.504;2023-11-22T04:42:04;13.30;;;7.22;;
52057;SDS011;38063;53.210;6.504;2023-11-22T04:44:30;15.48;;;7.38;;
52057;SDS011;38063;53.210;6.504;2023-11-22T04:46:57;15.98;;;7.20;;
52057;SDS011;38063;53.210;6.504;2023-11-22T04:49:24;14.68;;;8.18;;
52057;SDS011;38063;53.210;6.504;2023-11-22T04:51:50;14.43;;;7.20;;
52057;SDS011;38063;53.210;6.504;2023-11-22T04:54:16;16.27;;;8.00;;
52057;SDS011;38063;53.210;6.504;2023-11-22T04:56:42;16.23;;;8.38;;
52057;SDS011;38063;53.210;6.504;2023-11-22T04:59:08;15.63;;;7.32;;
52057;SDS011;38063;53.210;6.504;2023-11-22T05:01:34;19.08;;;8.80;;
52057;SDS011;38063;53.210;6.504;2023-11-22T05:04:00;21.95;;;8.77;;
52057;SDS011;38063;53.210;6.504;2023-11-22T05:06:26;16.90;;;8.63;;
52057;SDS011;38063;53.210;6.504;2023-11-22T05:08:54;16.40;;;8.85;;
52057;SDS011;38063;53.210;6.504;2023-11-22T05:11:20;18.73;;;8.63;;
52057;SDS011;38063;53.210;6.504;2023-11-22T05:13:46;17.52;;;8.30;;
52057;SDS011;38063;53.210;6.504;2023-11-22T05:16:12;15.45;;;8.13;;
52057;SDS011;38063;53.210;6.504;2023-11-22T05:18:38;16.42;;;8.48;;
52057;SDS011;38063;53.210;6.504;2023-11-22T05:21:03;17.90;;;8.45;;
52057;SDS011;38063;53.210;6.504;2023-11-22T05:23:30;18.27;;;9.10;;
52057;SDS011;38063;53.210;6.504;2023-11-22T05:25:58;17.30;;;8.40;;
52057;SDS011;38063;53.210;6.504;2023-11-22T05:28:27;23.58;;;12.02;;
52057;SDS011;38063;53.210;6.504;2023-11-22T05:30:53;30.17;;;15.52;;
52057;SDS011;38063;53.210;6.504;2023-11-22T05:33:18;28.33;;;13.77;;
52057;SDS011;38063;53.210;6.504;2023-11-22T05:35:44;24.13;;;12.02;;
52057;SDS011;38063;53.210;6.504;2023-11-22T05:38:10;19.55;;;10.05;;
52057;SDS011;38063;53.210;6.504;2023-11-22T05:40:35;22.83;;;10.55;;
52057;SDS011;38063;53.210;6.504;2023-11-22T05:43:01;20.90;;;9.65;;
52057;SDS011;38063;53.210;6.504;2023-11-22T05:45:27;19.35;;;9.13;;
52057;SDS011;38063;53.210;6.504;2023-11-22T05:47:54;22.35;;;9.75;;
52057;SDS011;38063;53.210;6.504;2023-11-22T05:50:19;18.70;;;9.15;;
52057;SDS011;38063;53.210;6.504;2023-11-22T05:52:45;20.73;;;9.63;;
52057;SDS011;38063;53.210;6.504;2023-11-22T05:55:11;20.77;;;9.77;;
52057;SDS011;38063;53.210;6.504;2023-11-22T05:57:39;23.50;;;10.55;;
52057;SDS011;38063;53.210;6.504;2023-11-22T06:00:06;20.75;;;9.68;;
52057;SDS011;38063;53.210;6.504;2023-11-22T06:02:32;18.27;;;8.80;;
52057;SDS011;38063;53.210;6.504;2023-11-22T06:04:58;20.55;;;9.70;;
52057;SDS011;38063;53.210;6.504;2023-11-22T06:07:24;21.92;;;10.00;;
52057;SDS011;38063;53.210;6.504;2023-11-22T06:09:49;21.02;;;10.50;;
52057;SDS011;38063;53.210;6.504;2023-11-22T06:12:15;24.60;;;11.70;;
52057;SDS011;38063;53.210;6.504;2023-11-22T06:14:40;18.83;;;10.07;;
52057;SDS011;38063;53.210;6.504;2023-11-22T06:17:09;20.95;;;9.82;;
52057;SDS011;38063;53.210;6.504;2023-11-22T06:19:35;22.10;;;10.40;;
52057;SDS011;38063;53.210;6.504;2023-11-22T06:22:01;22.90;;;11.60;;
52057;SDS011;38063;53.210;6.504;2023-11-22T06:24:27;24.05;;;10.75;;
52057;SDS011;38063;53.210;6.504;2023-11-22T06:26:53;25.45;;;10.93;;
52057;SDS011;38063;53.210;6.504;2023-11-22T06:29:18;24.95;;;11.93;;
52057;SDS011;38063;53.210;6.504;2023-11-22T06:31:45;24.30;;;11.23;;
52057;SDS011;38063;53.210;6.504;2023-11-22T06:34:10;28.70;;;11.93;;
52057;SDS011;38063;53.210;6.504;2023-11-22T06:36:37;24.48;;;11.30;;
52057;SDS011;38063;53.210;6.504;2023-11-22T06:39:03;24.10;;;11.35;;
52057;SDS011;38063;53.210;6.504;2023-11-22T06:41:30;25.83;;;11.35;;
52057;SDS011;38063;53.210;6.504;2023-11-22T06:43:56;28.10;;;12.80;;
52057;SDS011;38063;53.210;6.504;2023-11-22T06:46:21;25.75;;;12.65;;
52057;SDS011;38063;53.210;6.504;2023-11-22T06:48:48;25.02;;;12.32;;
52057;SDS011;38063;53.210;6.504;2023-11-22T06:51:15;25.00;;;11.43;;
52057;SDS011;38063;53.210;6.504;2023-11-22T06:53:41;28.45;;;13.10;;
52057;SDS011;38063;53.210;6.504;2023-11-22T06:56:06;26.48;;;13.05;;
52057;SDS011;38063;53.210;6.504;2023-11-22T06:58:32;23.85;;;11.93;;
52057;SDS011;38063;53.210;6.504;2023-11-22T07:00:58;31.25;;;12.38;;
52057;SDS011;38063;53.210;6.504;2023-11-22T07:03:26;25.42;;;12.23;;
52057;SDS011;38063;53.210;6.504;2023-11-22T07:05:51;25.27;;;11.48;;
52057;SDS011;38063;53.210;6.504;2023-11-22T07:08:17;30.05;;;12.40;;
52057;SDS011;38063;53.210;6.504;2023-11-22T07:10:43;25.48;;;12.20;;
52057;SDS011;38063;53.210;6.504;2023-11-22T07:13:10;24.27;;;12.60;;
52057;SDS011;38063;53.210;6.504;2023-11-22T07:15:38;30.80;;;14.05;;
52057;SDS011;38063;53.210;6.504;2023-11-22T07:18:04;31.20;;;13.93;;
52057;SDS011;38063;53.210;6.504;2023-11-22T07:20:30;27.08;;;12.68;;
52057;SDS011;38063;53.210;6.504;2023-11-22T07:22:56;28.45;;;12.77;;
52057;SDS011;38063;53.210;6.504;2023-11-22T07:25:23;23.73;;;12.18;;
52057;SDS011;38063;53.210;6.504;2023-11-22T07:27:52;28.42;;;14.80;;
52057;SDS011;38063;53.210;6.504;2023-11-22T07:30:20;30.15;;;13.00;;
52057;SDS011;38063;53.210;6.504;2023-11-22T07:32:49;28.73;;;13.15;;
52057;SDS011;38063;53.210;6.504;2023-11-22T07:35:17;26.77;;;13.32;;
52057;SDS011;38063;53.210;6.504;2023-11-22T07:37:45;27.20;;;13.57;;
52057;SDS011;38063;53.210;6.504;2023-11-22T07:40:11;29.13;;;11.95;;
52057;SDS011;38063;53.210;6.504;2023-11-22T07:42:38;28.30;;;13.15;;
52057;SDS011;38063;53.210;6.504;2023-11-22T07:45:05;29.67;;;12.45;;
52057;SDS011;38063;53.210;6.504;2023-11-22T07:47:31;26.90;;;13.00;;
52057;SDS011;38063;53.210;6.504;2023-11-22T07:50:00;29.27;;;12.88;;
52057;SDS011;38063;53.210;6.504;2023-11-22T07:52:26;30.23;;;14.10;;
52057;SDS011;38063;53.210;6.504;2023-11-22T07:54:57;31.35;;;12.85;;
52057;SDS011;38063;53.210;6.504;2023-11-22T07:57:24;28.60;;;13.50;;
52057;SDS011;38063;53.210;6.504;2023-11-22T07:59:50;31.20;;;13.68;;
52057;SDS011;38063;53.210;6.504;2023-11-22T08:02:20;31.30;;;13.93;;
52057;SDS011;38063;53.210;6.504;2023-11-22T08:04:46;29.70;;;13.65;;
52057;SDS011;38063;53.210;6.504;2023-11-22T08:07:13;31.75;;;14.23;;
52057;SDS011;38063;53.210;6.504;2023-11-22T08:09:40;30.13;;;13.25;;
52057;SDS011;38063;53.210;6.504;2023-11-22T08:12:06;31.08;;;14.63;;
52057;SDS011;38063;53.210;6.504;2023-11-22T08:14:32;27.42;;;13.25;;
52057;SDS011;38063;53.210;6.504;2023-11-22T08:16:58;29.45;;;13.63;;
52057;SDS011;38063;53.210;6.504;2023-11-22T08:19:24;33.42;;;14.10;;
52057;SDS011;38063;53.210;6.504;2023-11-22T08:21:50;32.38;;;13.60;;
52057;SDS011;38063;53.210;6.504;2023-11-22T08:24:16;28.20;;;13.55;;
52057;SDS011;38063;53.210;6.504;2023-11-22T08:26:44;30.00;;;13.75;;
52057;SDS011;38063;53.210;6.504;2023-11-22T08:29:10;32.97;;;14.77;;
52057;SDS011;38063;53.210;6.504;2023-11-22T08:31:36;31.55;;;14.40;;
52057;SDS011;38063;53.210;6.504;2023-11-22T08:34:02;31.85;;;15.35;;
52057;SDS011;38063;53.210;6.504;2023-11-22T08:36:31;35.13;;;15.50;;
52057;SDS011;38063;53.210;6.504;2023-11-22T08:38:59;29.63;;;14.10;;
52057;SDS011;38063;53.210;6.504;2023-11-22T08:41:26;33.15;;;14.95;;
52057;SDS011;38063;53.210;6.504;2023-11-22T08:43:55;39.70;;;17.77;;
52057;SDS011;38063;53.210;6.504;2023-11-22T08:46:22;28.98;;;13.77;;
52057;SDS011;38063;53.210;6.504;2023-11-22T08:48:48;32.05;;;14.10;;
52057;SDS011;38063;53.210;6.504;2023-11-22T08:51:16;34.00;;;15.30;;
52057;SDS011;38063;53.210;6.504;2023-11-22T08:53:42;36.33;;;16.20;;
52057;SDS011;38063;53.210;6.504;2023-11-22T08:56:09;35.42;;;15.77;;
52057;SDS011;38063;53.210;6.504;2023-11-22T08:58:36;33.75;;;15.98;;
52057;SDS011;38063;53.210;6.504;2023-11-22T09:01:05;32.67;;;14.77;;
52057;SDS011;38063;53.210;6.504;2023-11-22T09:03:32;29.67;;;14.45;;
52057;SDS011;38063;53.210;6.504;2023-11-22T09:06:01;32.05;;;16.05;;
52057;SDS011;38063;53.210;6.504;2023-11-22T09:08:28;31.23;;;14.95;;
52057;SDS011;38063;53.210;6.504;2023-11-22T09:10:55;33.50;;;15.18;;
52057;SDS011;38063;53.210;6.504;2023-11-22T09:13:20;30.33;;;15.45;;
52057;SDS011;38063;53.210;6.504;2023-11-22T09:15:47;32.35;;;14.52;;
52057;SDS011;38063;53.210;6.504;2023-11-22T09:18:13;39.63;;;14.90;;
52057;SDS011;38063;53.210;6.504;2023-11-22T09:20:38;35.70;;;15.45;;
52057;SDS011;38063;53.210;6.504;2023-11-22T09:23:07;31.88;;;14.98;;
52057;SDS011;38063;53.210;6.504;2023-11-22T09:25:33;30.35;;;14.15;;
52057;SDS011;38063;53.210;6.504;2023-11-22T09:28:00;29.45;;;14.43;;
52057;SDS011;38063;53.210;6.504;2023-11-22T09:30:30;30.08;;;14.57;;
52057;SDS011;38063;53.210;6.504;2023-11-22T09:32:58;30.13;;;14.40;;
52057;SDS011;38063;53.210;6.504;2023-11-22T09:35:28;32.75;;;14.60;;
52057;SDS011;38063;53.210;6.504;2023-11-22T09:37:55;30.45;;;13.77;;
52057;SDS011;38063;53.210;6.504;2023-11-22T09:40:21;26.55;;;13.68;;
52057;SDS011;38063;53.210;6.504;2023-11-22T09:42:48;30.42;;;14.02;;
52057;SDS011;38063;53.210;6.504;2023-11-22T09:45:19;26.60;;;12.50;;
52057;SDS011;38063;53.210;6.504;2023-11-22T09:47:46;27.92;;;13.82;;
52057;SDS011;38063;53.210;6.504;2023-11-22T09:53:08;31.75;;;13.52;;
52057;SDS011;38063;53.210;6.504;2023-11-22T09:55:39;34.50;;;14.40;;
52057;SDS011;38063;53.210;6.504;2023-11-22T09:58:11;30.80;;;14.80;;
52057;SDS011;38063;53.210;6.504;2023-11-22T10:00:39;29.30;;;13.93;;
52057;SDS011;38063;53.210;6.504;2023-11-22T10:03:06;30.25;;;14.75;;
52057;SDS011;38063;53.210;6.504;2023-11-22T10:05:32;29.75;;;14.10;;
52057;SDS011;38063;53.210;6.504;2023-11-22T10:07:58;28.98;;;14.63;;
52057;SDS011;38063;53.210;6.504;2023-11-22T10:10:25;27.33;;;13.23;;
52057;SDS011;38063;53.210;6.504;2023-11-22T10:12:55;29.42;;;13.95;;
52057;SDS011;38063;53.210;6.504;2023-11-22T10:15:21;27.05;;;12.93;;
52057;SDS011;38063;53.210;6.504;2023-11-22T10:17:57;27.77;;;13.32;;
52057;SDS011;38063;53.210;6.504;2023-11-22T10:20:28;26.60;;;13.13;;
52057;SDS011;38063;53.210;6.504;2023-11-22T10:23:00;29.63;;;13.90;;
52057;SDS011;38063;53.210;6.504;2023-11-22T10:25:26;25.27;;;12.60;;
52057;SDS011;38063;53.210;6.504;2023-11-22T10:27:52;23.60;;;12.10;;
52057;SDS011;38063;53.210;6.504;2023-11-22T10:30:18;22.38;;;12.05;;
52057;SDS011;38063;53.210;6.504;2023-11-22T10:32:45;24.38;;;12.50;;
52057;SDS011;38063;53.210;6.504;2023-11-22T10:35:11;25.75;;;12.38;;
52057;SDS011;38063;53.210;6.504;2023-11-22T10:37:39;23.48;;;12.02;;
52057;SDS011;38063;53.210;6.504;2023-11-22T10:40:08;24.58;;;11.35;;
52057;SDS011;38063;53.210;6.504;2023-11-22T10:42:35;25.20;;;11.82;;
52057;SDS011;38063;53.210;6.504;2023-11-22T10:45:03;23.00;;;11.45;;
52057;SDS011;38063;53.210;6.504;2023-11-22T10:47:31;22.38;;;11.95;;
52057;SDS011;38063;53.210;6.504;2023-11-22T10:50:00;22.23;;;11.32;;
52057;SDS011;38063;53.210;6.504;2023-11-22T10:52:26;20.70;;;10.95;;
52057;SDS011;38063;53.210;6.504;2023-11-22T10:54:55;17.90;;;11.07;;
52057;SDS011;38063;53.210;6.504;2023-11-22T10:57:27;20.23;;;10.43;;
52057;SDS011;38063;53.210;6.504;2023-11-22T10:59:57;21.33;;;10.73;;
52057;SDS011;38063;53.210;6.504;2023-11-22T11:02:31;17.27;;;9.75;;
52057;SDS011;38063;53.210;6.504;2023-11-22T11:05:05;15.63;;;9.07;;
52057;SDS011;38063;53.210;6.504;2023-11-22T11:07:48;16.05;;;8.90;;
52057;SDS011;38063;53.210;6.504;2023-11-22T11:10:18;15.48;;;8.68;;
52057;SDS011;38063;53.210;6.504;2023-11-22T11:12:46;14.13;;;8.93;;
52057;SDS011;38063;53.210;6.504;2023-11-22T11:15:12;13.45;;;8.07;;
52057;SDS011;38063;53.210;6.504;2023-11-22T11:17:39;17.25;;;8.63;;
52057;SDS011;38063;53.210;6.504;2023-11-22T11:20:05;15.52;;;8.18;;
52057;SDS011;38063;53.210;6.504;2023-11-22T11:22:32;12.90;;;7.53;;
52057;SDS011;38063;53.210;6.504;2023-11-22T11:25:04;12.45;;;7.30;;
52057;SDS011;38063;53.210;6.504;2023-11-22T11:27:34;11.50;;;7.32;;
52057;SDS011;38063;53.210;6.504;2023-11-22T11:33:11;12.68;;;7.20;;
52057;SDS011;38063;53.210;6.504;2023-11-22T11:35:42;15.70;;;7.40;;
52057;SDS011;38063;53.210;6.504;2023-11-22T11:38:13;10.93;;;6.47;;
52057;SDS011;38063;53.210;6.504;2023-11-22T11:40:43;9.55;;;5.97;;
52057;SDS011;38063;53.210;6.504;2023-11-22T11:43:10;9.18;;;6.22;;
52057;SDS011;38063;53.210;6.504;2023-11-22T11:45:40;9.90;;;6.30;;
52057;SDS011;38063;53.210;6.504;2023-11-22T11:48:18;10.07;;;5.90;;
52057;SDS011;38063;53.210;6.504;2023-11-22T11:50:45;10.18;;;5.95;;
52057;SDS011;38063;53.210;6.504;2023-11-22T11:53:11;9.07;;;5.72;;
52057;SDS011;38063;53.210;6.504;2023-11-22T11:55:37;10.02;;;5.80;;
52057;SDS011;38063;53.210;6.504;2023-11-22T11:58:07;10.35;;;6.18;;
52057;SDS011;38063;53.210;6.504;2023-11-22T12:00:34;12.50;;;6.47;;
52057;SDS011;38063;53.210;6.504;2023-11-22T12:03:07;11.32;;;6.63;;
52057;SDS011;38063;53.210;6.504;2023-11-22T12:05:35;9.32;;;5.75;;
52057;SDS011;38063;53.210;6.504;2023-11-22T12:08:02;9.60;;;5.78;;
52057;SDS011;38063;53.210;6.504;2023-11-22T12:10:28;12.98;;;7.00;;
52057;SDS011;38063;53.210;6.504;2023-11-22T12:12:54;11.52;;;6.10;;
52057;SDS011;38063;53.210;6.504;2023-11-22T12:15:19;10.48;;;6.22;;
52057;SDS011;38063;53.210;6.504;2023-11-22T12:17:48;11.02;;;6.72;;
52057;SDS011;38063;53.210;6.504;2023-11-22T12:20:16;10.18;;;6.18;;
52057;SDS011;38063;53.210;6.504;2023-11-22T12:22:46;11.98;;;6.65;;
52057;SDS011;38063;53.210;6.504;2023-11-22T12:25:13;9.27;;;6.07;;
52057;SDS011;38063;53.210;6.504;2023-11-22T12:27:42;10.65;;;6.57;;
52057;SDS011;38063;53.210;6.504;2023-11-22T12:30:09;10.63;;;6.30;;
52057;SDS011;38063;53.210;6.504;2023-11-22T12:32:52;13.15;;;6.45;;
52057;SDS011;38063;53.210;6.504;2023-11-22T12:35:17;10.93;;;6.53;;
52057;SDS011;38063;53.210;6.504;2023-11-22T12:37:43;14.05;;;6.32;;
52057;SDS011;38063;53.210;6.504;2023-11-22T12:40:09;11.95;;;6.30;;
52057;SDS011;38063;53.210;6.504;2023-11-22T12:42:47;13.10;;;6.55;;
52057;SDS011;38063;53.210;6.504;2023-11-22T12:45:25;10.95;;;6.22;;
52057;SDS011;38063;53.210;6.504;2023-11-22T12:47:53;11.93;;;6.15;;
52057;SDS011;38063;53.210;6.504;2023-11-22T12:53:07;7.97;;;5.50;;
52057;SDS011;38063;53.210;6.504;2023-11-22T12:55:47;9.68;;;5.80;;
52057;SDS011;38063;53.210;6.504;2023-11-22T12:58:17;10.82;;;6.13;;
52057;SDS011;38063;53.210;6.504;2023-11-22T13:00:45;10.77;;;5.78;;
52057;SDS011;38063;53.210;6.504;2023-11-22T13:03:11;10.70;;;5.80;;
52057;SDS011;38063;53.210;6.504;2023-11-22T13:05:44;10.27;;;6.05;;
52057;SDS011;38063;53.210;6.504;2023-11-22T13:08:11;9.70;;;6.55;;
52057;SDS011;38063;53.210;6.504;2023-11-22T13:10:44;10.52;;;6.15;;
52057;SDS011;38063;53.210;6.504;2023-11-22T13:13:12;10.05;;;6.22;;
52057;SDS011;38063;53.210;6.504;2023-11-22T13:15:39;12.02;;;6.85;;
52057;SDS011;38063;53.210;6.504;2023-11-22T13:18:05;12.57;;;6.40;;
52057;SDS011;38063;53.210;6.504;2023-11-22T13:20:33;11.82;;;6.28;;
52057;SDS011;38063;53.210;6.504;2023-11-22T13:23:00;10.45;;;6.50;;
52057;SDS011;38063;53.210;6.504;2023-11-22T13:25:27;11.07;;;6.32;;
52057;SDS011;38063;53.210;6.504;2023-11-22T13:27:53;13.27;;;6.45;;
52057;SDS011;38063;53.210;6.504;2023-11-22T13:30:21;10.10;;;6.50;;
52057;SDS011;38063;53.210;6.504;2023-11-22T13:32:57;11.88;;;6.25;;
52057;SDS011;38063;53.210;6.504;2023-11-22T13:35:26;11.82;;;6.97;;
52057;SDS011;38063;53.210;6.504;2023-11-22T13:37:56;13.63;;;6.72;;
52057;SDS011;38063;53.210;6.504;2023-11-22T13:40:23;10.93;;;6.45;;
52057;SDS011;38063;53.210;6.504;2023-11-22T13:42:51;11.20;;;6.70;;
52057;SDS011;38063;53.210;6.504;2023-11-22T13:45:20;11.27;;;6.05;;
52057;SDS011;38063;53.210;6.504;2023-11-22T13:50:15;9.60;;;6.15;;
52057;SDS011;38063;53.210;6.504;2023-11-22T13:52:46;10.43;;;6.15;;
52057;SDS011;38063;53.210;6.504;2023-11-22T13:55:15;10.32;;;6.00;;
52057;SDS011;38063;53.210;6.504;2023-11-22T13:57:44;12.20;;;6.90;;
52057;SDS011;38063;53.210;6.504;2023-11-22T14:00:10;13.35;;;6.40;;
52057;SDS011;38063;53.210;6.504;2023-11-22T14:02:39;13.98;;;7.53;;
52057;SDS011;38063;53.210;6.504;2023-11-22T14:05:06;14.30;;;7.28;;
52057;SDS011;38063;53.210;6.504;2023-11-22T14:07:33;13.02;;;7.18;;
52057;SDS011;38063;53.210;6.504;2023-11-22T14:10:00;12.15;;;6.80;;
52057;SDS011;38063;53.210;6.504;2023-11-22T14:12:28;12.77;;;7.95;;
52057;SDS011;38063;53.210;6.504;2023-11-22T14:14:55;12.95;;;7.15;;
52057;SDS011;38063;53.210;6.504;2023-11-22T14:17:21;12.23;;;6.50;;
52057;SDS011;38063;53.210;6.504;2023-11-22T14:19:48;11.75;;;7.25;;
52057;SDS011;38063;53.210;6.504;2023-11-22T14:22:14;12.45;;;6.45;;
52057;SDS011;38063;53.210;6.504;2023-11-22T14:24:40;14.68;;;6.97;;
52057;SDS011;38063;53.210;6.504;2023-11-22T14:27:06;12.07;;;7.18;;
52057;SDS011;38063;53.210;6.504;2023-11-22T14:29:31;11.80;;;6.72;;
52057;SDS011;38063;53.210;6.504;2023-11-22T14:31:58;14.18;;;7.20;;
52057;SDS011;38063;53.210;6.504;2023-11-22T14:34:24;12.00;;;6.78;;
52057;SDS011;38063;53.210;6.504;2023-11-22T14:36:49;13.27;;;7.68;;
52057;SDS011;38063;53.210;6.504;2023-11-22T14:39:15;11.50;;;7.00;;
52057;SDS011;38063;53.210;6.504;2023-11-22T14:41:41;14.10;;;8.00;;